2022年7月6日

时间 代码 天气 温度 能见度 天花板 METAR/SPECI
9:30 下午
V
75 °F 6¼ mi+ - 350° 350° 8 kt METAR LFSL 061930Z AUTO 35008KT CAVOK 24/12 Q1023 NOSIG
9:00 下午
V
77 °F 6¼ mi+ - 340° 340° 9 kt METAR LFSL 061900Z AUTO 34009KT CAVOK 25/12 Q1023 NOSIG
8:30 下午
V
77 °F 6¼ mi+ - 350° 350° 11 kt METAR LFSL 061830Z AUTO 35011KT CAVOK 25/12 Q1023 NOSIG
8:00 下午
V
79 °F 6¼ mi+ - 360° 360° 11 kt METAR LFSL 061800Z AUTO 36011KT 320V030 CAVOK 26/12 Q1022 NOSIG
7:30 下午
V
81 °F 6¼ mi+ - 350° 350° 14 kt METAR LFSL 061730Z AUTO 35014KT CAVOK 27/12 Q1022 NOSIG
7:00 下午
V
81 °F 6¼ mi+ - 350° 350° 13 kt METAR LFSL 061700Z AUTO 35013KT CAVOK 27/12 Q1022 NOSIG
6:30 下午
V
81 °F 6¼ mi+ - 340° 340° 14 kt METAR LFSL 061630Z AUTO 34014KT 310V010 CAVOK 27/12 Q1022 NOSIG
6:00 下午
V
82 °F 6¼ mi+ - 340° 340° 14 kt METAR LFSL 061600Z AUTO 34014KT CAVOK 28/12 Q1022 NOSIG
5:30 下午
V
82 °F 6¼ mi+ - 350° 350° 12 kt METAR LFSL 061530Z AUTO 35012KT CAVOK 28/12 Q1023 NOSIG
5:00 下午
V
82 °F 6¼ mi+ - 350° 350° 11 kt METAR LFSL 061500Z AUTO 35011KT 280V030 CAVOK 28/13 Q1023 NOSIG
4:30 下午
V
82 °F 6¼ mi+ - 320° 320° 12 kt METAR LFSL 061430Z AUTO 32012KT 280V360 CAVOK 28/12 Q1023 TEMPO 36015G25KT
4:00 下午
V
82 °F 6¼ mi+ - 330° 330° 12 kt METAR LFSL 061400Z AUTO 33012KT 300V360 CAVOK 28/12 Q1023 TEMPO 36015G25KT
3:30 下午
V
82 °F 6¼ mi+ - 330° 330° 9 kt METAR LFSL 061330Z AUTO 33009KT 280V360 CAVOK 28/12 Q1023 TEMPO 36015G25KT
3:00 下午
V
82 °F 6¼ mi+ - 350° 350° 9 kt METAR LFSL 061300Z AUTO 35009KT 290V090 CAVOK 28/12 Q1023 TEMPO 36015G25KT
2:30 下午
V
81 °F 6¼ mi+ - 360° 360° 8 kt METAR LFSL 061230Z AUTO 36008KT 310V050 CAVOK 27/11 Q1023 TEMPO 36015G25KT
2:00 下午
V
81 °F 6¼ mi+ - 340° 340° 9 kt METAR LFSL 061200Z AUTO 34009KT 280V030 CAVOK 27/11 Q1023 TEMPO 36015G25KT
1:30 下午
V
79 °F 6¼ mi+ - 350° 350° 7 kt METAR LFSL 061130Z AUTO 35007KT 290V030 CAVOK 26/12 Q1024 TEMPO 36015G25KT
1:00 下午
V
79 °F 6¼ mi+ - 340° 340° 6 kt METAR LFSL 061100Z AUTO 34006KT 280V040 CAVOK 26/12 Q1024 TEMPO 36015G25KT
12:30 下午
V
77 °F 6¼ mi+ - 350° 350° 9 kt METAR LFSL 061030Z AUTO 35009KT 310V050 CAVOK 25/13 Q1024 TEMPO 36015G25KT
12:00 下午
V
77 °F 6¼ mi+ - 350° 350° 9 kt METAR LFSL 061000Z AUTO 35009KT 290V060 CAVOK 25/12 Q1024 NOSIG
11:30 上午
V
75 °F 6¼ mi+ - 020° 020° 7 kt METAR LFSL 060930Z AUTO 02007KT 330V050 CAVOK 24/11 Q1024 NOSIG
11:00 上午
V
73 °F 6¼ mi+ - 010° 010° 7 kt METAR LFSL 060900Z AUTO 01007KT 330V050 CAVOK 23/11 Q1024 NOSIG
10:30 上午
V
73 °F 6¼ mi+ - 360° 360° 6 kt METAR LFSL 060830Z AUTO 36006KT 330V040 CAVOK 23/11 Q1024 NOSIG
10:00 上午
V
72 °F 6¼ mi+ - 360° 360° 4 kt METAR LFSL 060800Z AUTO 36004KT 250V050 CAVOK 22/12 Q1024 NOSIG
9:30 上午
V
70 °F 6¼ mi+ - 010° 010° 3 kt METAR LFSL 060730Z AUTO 01003KT 310V080 CAVOK 21/12 Q1024 NOSIG
9:00 上午
V
70 °F 6¼ mi+ - 030° 030° 4 kt METAR LFSL 060700Z AUTO 03004KT 350V060 CAVOK 21/11 Q1024 NOSIG
8:30 上午
V
66 °F 6¼ mi+ - 350° 350° 5 kt METAR LFSL 060630Z AUTO 35005KT CAVOK 19/11 Q1024 NOSIG
8:00 上午
V
64 °F 6¼ mi+ - 340° 340° 7 kt METAR LFSL 060600Z AUTO 34007KT CAVOK 18/11 Q1024 NOSIG
7:30 上午
V
63 °F 6¼ mi+ - 350° 350° 7 kt METAR LFSL 060530Z AUTO 35007KT CAVOK 17/11 Q1023 NOSIG
7:00 上午
V
61 °F 6¼ mi+ - 340° 340° 7 kt METAR LFSL 060500Z AUTO 34007KT CAVOK 16/11 Q1023 NOSIG
6:30 上午
V
61 °F 6¼ mi+ - 360° 360° 6 kt METAR LFSL 060430Z AUTO 36006KT CAVOK 16/10 Q1023 NOSIG
6:00 上午
V
61 °F 6¼ mi+ - 350° 350° 6 kt METAR LFSL 060400Z AUTO 35006KT CAVOK 16/10 Q1023 NOSIG
5:30 上午
V
63 °F 6¼ mi+ - 350° 350° 5 kt METAR LFSL 060330Z AUTO 35005KT CAVOK 17/10 Q1023 NOSIG
5:00 上午
V
63 °F 6¼ mi+ - 350° 350° 6 kt METAR LFSL 060300Z AUTO 35006KT CAVOK 17/11 Q1023 NOSIG
4:30 上午
V
63 °F 6¼ mi+ - 340° 340° 7 kt METAR LFSL 060230Z AUTO 34007KT CAVOK 17/11 Q1023
4:00 上午
V
63 °F 6¼ mi+ - 350° 350° 7 kt METAR LFSL 060200Z AUTO 35007KT CAVOK 17/11 Q1023
3:30 上午
V
63 °F 6¼ mi+ - 330° 330° 4 kt METAR LFSL 060130Z AUTO 33004KT CAVOK 17/11 Q1023
3:00 上午
V
64 °F 6¼ mi+ - 350° 350° 5 kt METAR LFSL 060100Z AUTO 35005KT CAVOK 18/11 Q1024
2:30 上午
V
61 °F 6¼ mi+ - Var Var 3 kt METAR LFSL 060030Z AUTO VRB03KT CAVOK 16/11 Q1024
2:00 上午
V
64 °F 6¼ mi+ - 350° 350° 2 kt METAR LFSL 060000Z AUTO 35002KT CAVOK 18/12 Q1024
1:30 上午
V
68 °F 6¼ mi+ - 360° 360° 4 kt METAR LFSL 052330Z AUTO 36004KT CAVOK 20/11 Q1024
1:00 上午
V
68 °F 6¼ mi+ - 360° 360° 4 kt METAR LFSL 052300Z AUTO 36004KT CAVOK 20/12 Q1023
12:30 上午
V
68 °F 6¼ mi+ - 350° 350° 3 kt METAR LFSL 052230Z AUTO 35003KT CAVOK 20/12 Q1023
12:00 上午
V
68 °F 6¼ mi+ - 350° 350° 5 kt METAR LFSL 052200Z AUTO 35005KT CAVOK 20/12 Q1023

2022年7月5日

时间 代码 天气 温度 能见度 天花板 METAR/SPECI
11:30 下午
V
70 °F 6¼ mi+ - 350° 350° 5 kt METAR LFSL 052130Z AUTO 35005KT CAVOK 21/12 Q1023
11:00 下午
V
72 °F 6¼ mi+ - 340° 340° 6 kt METAR LFSL 052100Z AUTO 34006KT CAVOK 22/12 Q1023
10:30 下午
V
73 °F 6¼ mi+ - 340° 340° 5 kt METAR LFSL 052030Z AUTO 34005KT CAVOK 23/12 Q1022
10:00 下午
V
75 °F 6¼ mi+ - 330° 330° 7 kt METAR LFSL 052000Z AUTO 33007KT CAVOK 24/12 Q1022 NOSIG
9:30 下午
V
75 °F 6¼ mi+ - 330° 330° 8 kt METAR LFSL 051930Z AUTO 33008KT CAVOK 24/12 Q1022 NOSIG
9:00 下午
V
79 °F 6¼ mi+ - 330° 330° 9 kt METAR LFSL 051900Z AUTO 33009KT CAVOK 26/12 Q1021 NOSIG
8:30 下午
V
79 °F 6¼ mi+ - 330° 330° 9 kt METAR LFSL 051830Z AUTO 33009KT CAVOK 26/12 Q1021 NOSIG
8:00 下午
V
81 °F 6¼ mi+ - 330° 330° 10 kt METAR LFSL 051800Z AUTO 33010KT 300V360 CAVOK 27/11 Q1021 NOSIG
7:30 下午
V
81 °F 6¼ mi+ - 340° 340° 10 kt METAR LFSL 051730Z AUTO 34010KT CAVOK 27/11 Q1021 NOSIG
7:00 下午
V
82 °F 6¼ mi+ - 340° 340° 11 kt METAR LFSL 051700Z AUTO 34011KT CAVOK 28/10 Q1021 NOSIG
6:30 下午
V
82 °F 6¼ mi+ - 330° 330° 13 kt METAR LFSL 051630Z AUTO 33013KT 290V350 CAVOK 28/10 Q1021 BECMG VRB03KT
6:00 下午
V
82 °F 6¼ mi+ - 330° 330° 11 kt METAR LFSL 051600Z AUTO 33011KT 290V360 CAVOK 28/11 Q1021 NOSIG
5:30 下午
V
82 °F 6¼ mi+ - 320° 320° 10 kt METAR LFSL 051530Z AUTO 32010KT 290V350 CAVOK 28/12 Q1022 NOSIG
5:00 下午
V
82 °F 6¼ mi+ - 320° 320° 10 kt METAR LFSL 051500Z AUTO 32010KT 290V360 CAVOK 28/11 Q1022 NOSIG
4:30 下午
V
82 °F 6¼ mi+ - 330° 330° 11 kt METAR LFSL 051430Z AUTO 33011KT 300V360 CAVOK 28/11 Q1022 NOSIG
4:00 下午
V
82 °F 6¼ mi+ - 310° 310° 9 kt METAR LFSL 051400Z AUTO 31009KT 270V340 CAVOK 28/11 Q1022 NOSIG
3:30 下午
V
82 °F 6¼ mi+ - 330° 330° 12 kt METAR LFSL 051330Z AUTO 33012KT CAVOK 28/12 Q1022 NOSIG
3:00 下午
V
82 °F 6¼ mi+ - Var Var 9 - 19 kt METAR LFSL 051300Z AUTO VRB09G19KT CAVOK 28/12 Q1022 NOSIG
2:30 下午
V
81 °F 6¼ mi+ - 320° 320° 11 kt METAR LFSL 051230Z AUTO 32011KT 290V020 CAVOK 27/11 Q1022 NOSIG
2:00 下午
V
81 °F 6¼ mi+ - 320° 320° 10 kt METAR LFSL 051200Z AUTO 32010KT 280V350 CAVOK 27/11 Q1022 NOSIG
1:30 下午
V
81 °F 6¼ mi+ - 320° 320° 10 kt METAR LFSL 051130Z AUTO 32010KT 280V360 CAVOK 27/10 Q1022 NOSIG
1:00 下午
V
81 °F 6¼ mi+ - 310° 310° 11 kt METAR LFSL 051100Z AUTO 31011KT 270V340 CAVOK 27/12 Q1022 NOSIG
12:30 下午
V
79 °F 6¼ mi+ - 330° 330° 10 kt METAR LFSL 051030Z AUTO 33010KT 290V030 9999 FEW045 26/12 Q1023 NOSIG
12:00 下午
V
77 °F 6¼ mi+ - 350° 350° 7 kt METAR LFSL 051000Z AUTO 35007KT 280V060 CAVOK 25/15 Q1023 NOSIG
11:30 上午
V
77 °F 6¼ mi+ - 340° 340° 7 kt METAR LFSL 050930Z AUTO 34007KT 300V020 CAVOK 25/15 Q1022 NOSIG
11:00 上午
V
75 °F 6¼ mi+ - 360° 360° 8 kt METAR LFSL 050900Z AUTO 36008KT 330V040 CAVOK 24/14 Q1022 NOSIG
10:30 上午
V
73 °F 6¼ mi+ - 360° 360° 7 kt METAR LFSL 050830Z AUTO 36007KT 320V030 CAVOK 23/15 Q1023 NOSIG
10:00 上午
V
72 °F 6¼ mi+ - 010° 010° 6 kt METAR LFSL 050800Z AUTO 01006KT 330V040 CAVOK 22/14 Q1023 NOSIG
9:30 上午
V
70 °F 6¼ mi+ - 360° 360° 4 kt METAR LFSL 050730Z AUTO 36004KT 310V030 CAVOK 21/15 Q1022 NOSIG
9:00 上午
V
68 °F 6¼ mi+ - 340° 340° 7 kt METAR LFSL 050700Z AUTO 34007KT CAVOK 20/15 Q1022 NOSIG
8:30 上午
V
66 °F 6¼ mi+ - 350° 350° 6 kt METAR LFSL 050630Z AUTO 35006KT CAVOK 19/15 Q1022 NOSIG
8:00 上午
V
66 °F 6¼ mi+ - 340° 340° 4 kt METAR LFSL 050600Z AUTO 34004KT 290V010 CAVOK 19/15 Q1022 NOSIG
7:30 上午
V
64 °F 6¼ mi+ - Var Var 3 kt METAR LFSL 050530Z AUTO VRB03KT CAVOK 18/15 Q1022 NOSIG
7:00 上午
V
61 °F 6¼ mi+ - 290° 290° 2 kt METAR LFSL 050500Z AUTO 29002KT CAVOK 16/15 Q1022 NOSIG
6:30 上午
V
61 °F 6¼ mi+ - 290° 290° 3 kt METAR LFSL 050430Z AUTO 29003KT CAVOK 16/15 Q1022 NOSIG
6:00 上午
V
61 °F 6¼ mi+ - Var 000° 0 kt METAR LFSL 050400Z AUTO 00000KT CAVOK 16/14 Q1021 NOSIG
5:30 上午
V
61 °F 6¼ mi+ - Var Var 2 kt METAR LFSL 050330Z AUTO VRB02KT CAVOK 16/14 Q1021 NOSIG
5:00 上午
V
64 °F 6¼ mi+ - 340° 340° 4 kt METAR LFSL 050300Z AUTO 34004KT CAVOK 18/15 Q1021 NOSIG
4:30 上午
V
63 °F 6¼ mi+ - 330° 330° 4 kt METAR LFSL 050230Z AUTO 33004KT CAVOK 17/15 Q1021
4:00 上午
V
64 °F 6¼ mi+ - 320° 320° 4 kt METAR LFSL 050200Z AUTO 32004KT CAVOK 18/15 Q1021
3:30 上午
V
64 °F 6¼ mi+ - 320° 320° 5 kt METAR LFSL 050130Z AUTO 32005KT CAVOK 18/15 Q1021
3:00 上午
V
66 °F 6¼ mi+ - 330° 330° 5 kt METAR LFSL 050100Z AUTO 33005KT CAVOK 19/15 Q1021
2:30 上午
V
68 °F 6¼ mi+ - 340° 340° 6 kt METAR LFSL 050030Z AUTO 34006KT CAVOK 20/15 Q1021
2:00 上午
V
68 °F 6¼ mi+ - 340° 340° 5 kt METAR LFSL 050000Z AUTO 34005KT CAVOK 20/15 Q1021
1:30 上午
V
68 °F 6¼ mi+ - 340° 340° 5 kt METAR LFSL 042330Z AUTO 34005KT CAVOK 20/15 Q1021
1:00 上午
V
68 °F 6¼ mi+ - 310° 310° 5 kt METAR LFSL 042300Z AUTO 31005KT CAVOK 20/15 Q1021
12:30 上午
V
68 °F 6¼ mi+ - 300° 300° 6 kt METAR LFSL 042230Z AUTO 30006KT CAVOK 20/15 Q1021
12:00 上午
V
68 °F 6¼ mi+ - 300° 300° 3 kt METAR LFSL 042200Z AUTO 30003KT 260V320 CAVOK 20/16 Q1021

2022年7月4日

时间 代码 天气 温度 能见度 天花板 METAR/SPECI
11:30 下午
V
68 °F 6¼ mi+ - 300° 300° 3 kt METAR LFSL 042130Z AUTO 30003KT 260V320 CAVOK 20/16 Q1021
11:00 下午
V
68 °F 6¼ mi+ - 310° 310° 4 kt METAR LFSL 042100Z AUTO 31004KT 260V330 CAVOK 20/16 Q1021
10:30 下午
V
70 °F 6¼ mi+ - 300° 300° 4 kt METAR LFSL 042030Z AUTO 30004KT CAVOK 21/16 Q1021 NOSIG
10:00 下午
V
72 °F 6¼ mi+ - 290° 290° 3 kt METAR LFSL 042000Z AUTO 29003KT CAVOK 22/16 Q1020 NOSIG
9:30 下午
V
73 °F 6¼ mi+ - 320° 320° 5 kt METAR LFSL 041930Z AUTO 32005KT CAVOK 23/17 Q1020 NOSIG
9:00 下午
V
75 °F 6¼ mi+ - 320° 320° 7 kt METAR LFSL 041900Z AUTO 32007KT CAVOK 24/17 Q1020 NOSIG
8:30 下午
V
75 °F 6¼ mi+ - 330° 330° 7 kt METAR LFSL 041830Z AUTO 33007KT CAVOK 24/17 Q1020 NOSIG
8:00 下午
V
77 °F 6¼ mi+ - 330° 330° 10 kt METAR LFSL 041800Z AUTO 33010KT 300V360 CAVOK 25/17 Q1019 NOSIG
7:30 下午
V
77 °F 6¼ mi+ - 330° 330° 11 kt METAR LFSL 041730Z AUTO 33011KT CAVOK 25/18 Q1019 NOSIG
7:00 下午
V
79 °F 6¼ mi+ - 320° 320° 11 kt METAR LFSL 041700Z AUTO 32011KT CAVOK 26/17 Q1019 NOSIG
6:30 下午
V
81 °F 6¼ mi+ 16.000 ft 310° 310° 8 kt METAR LFSL 041630Z AUTO 31008KT 270V330 9999 FEW038 BKN160 27/16 Q1019 NOSIG
6:00 下午
V
81 °F 6¼ mi+ - 310° 310° 8 kt METAR LFSL 041600Z AUTO 31008KT 260V350 9999 FEW038 27/17 Q1019 NOSIG
5:30 下午
V
81 °F 6¼ mi+ - 330° 330° 8 kt METAR LFSL 041530Z AUTO 33008KT 300V020 CAVOK 27/16 Q1019 NOSIG
5:00 下午
V
81 °F 6¼ mi+ - 330° 330° 8 kt METAR LFSL 041500Z AUTO 33008KT CAVOK 27/17 Q1020 NOSIG
较旧的数据

下载我们的应用程序

在您的手机和平板电脑上轻松访问所有航空天气。
有许多网站上没有的功能,如离线支持和个人机场列表。

Studio Eveline

Benalmádena
España

我们和第三方通过cookies跟踪您在我们网站上的上网行为。如果您继续,我们认为您同意我们的cookie政策。 了解更多